createdAt,value
2018-12-05T00:08:29.635Z,8.51
2018-12-05T00:14:06.002Z,8.55
2018-12-05T00:16:52.499Z,8.56
2018-12-05T00:19:35.101Z,8.58
2018-12-05T00:22:13.205Z,8.35
2018-12-05T00:25:11.105Z,8.14
2018-12-05T00:31:06.701Z,7.93
2018-12-05T00:34:03.302Z,8.01
2018-12-05T00:40:01.185Z,8.33
2018-12-05T00:42:46.799Z,8.41
2018-12-05T00:48:45.401Z,8.13
2018-12-05T00:51:40.699Z,8.09
2018-12-05T01:00:35.402Z,7.87
2018-12-05T01:03:20.489Z,7.87
2018-12-05T01:08:57.498Z,7.79
2018-12-05T01:11:46.901Z,7.85
2018-12-05T01:17:39.801Z,7.51
2018-12-05T01:37:08.602Z,7.08
2018-12-05T01:43:41.801Z,7.26
2018-12-05T01:46:10.901Z,7.52
2018-12-05T01:48:39.843Z,7.41
2018-12-05T01:51:10.495Z,7.30
2018-12-05T01:53:40.158Z,7.16
2018-12-05T01:56:09.181Z,7.38
2018-12-05T01:58:37.813Z,7.45
2018-12-05T02:01:08.344Z,7.40
2018-12-05T02:03:44.131Z,7.58
2018-12-05T02:06:15.136Z,7.55
2018-12-05T02:08:45.390Z,7.46
2018-12-05T02:11:16.397Z,7.13
2018-12-05T02:13:47.299Z,6.82
2018-12-05T02:16:16.987Z,6.53
2018-12-05T02:18:46.504Z,6.45
2018-12-05T02:21:16.655Z,6.52
2018-12-05T02:23:45.239Z,6.33
2018-12-05T02:26:16.218Z,6.31
2018-12-05T02:28:45.719Z,6.15
2018-12-05T02:31:14.438Z,6.58
2018-12-05T02:33:43.534Z,6.55
2018-12-05T02:36:14.861Z,6.55
2018-12-05T02:38:45.136Z,6.76
2018-12-05T02:41:13.791Z,6.75
2018-12-05T02:43:42.579Z,6.58
2018-12-05T02:46:11.248Z,6.44
2018-12-05T02:48:40.011Z,6.55
2018-12-05T02:51:11.416Z,6.76
2018-12-05T02:53:40.812Z,7.02
2018-12-05T02:56:11.439Z,7.24
2018-12-05T02:58:40.230Z,7.22
2018-12-05T03:01:08.930Z,7.08
2018-12-05T03:03:44.309Z,6.84
2018-12-05T03:06:13.137Z,6.74
2018-12-05T03:08:41.841Z,6.65
2018-12-05T03:11:11.021Z,6.51
2018-12-05T03:13:39.804Z,6.45
2018-12-05T03:16:08.619Z,6.43
2018-12-05T03:18:38.212Z,6.24
2018-12-05T03:21:06.897Z,6.30
2018-12-05T03:23:35.398Z,6.46
2018-12-05T03:26:04.248Z,6.04
2018-12-05T03:28:33.018Z,5.88
2018-12-05T03:31:02.680Z,5.83
2018-12-05T03:33:32.382Z,5.88
2018-12-05T03:36:01.061Z,5.90
2018-12-05T03:38:30.558Z,6.26
2018-12-05T03:40:59.283Z,6.16
2018-12-05T03:43:28.091Z,5.95
2018-12-05T03:45:56.748Z,6.03
2018-12-05T03:48:25.604Z,6.29
2018-12-05T03:50:54.206Z,6.17
2018-12-05T03:53:22.849Z,6.19
2018-12-05T03:55:51.749Z,6.14
2018-12-05T03:58:20.471Z,5.84
2018-12-05T04:00:49.190Z,5.88
2018-12-05T04:03:24.805Z,5.99
2018-12-05T04:05:55.774Z,6.02
2018-12-05T04:08:24.741Z,6.14
2018-12-05T04:10:53.252Z,6.24
2018-12-05T04:13:21.799Z,6.16
2018-12-05T04:15:51.819Z,6.04
2018-12-05T04:18:20.313Z,6.02
2018-12-05T04:20:48.952Z,5.91
2018-12-05T04:23:17.773Z,5.97
2018-12-05T04:25:46.462Z,6.03
2018-12-05T04:28:15.083Z,5.99
2018-12-05T04:30:44.034Z,6.29
2018-12-05T04:33:15.517Z,6.32
2018-12-05T04:35:44.166Z,6.25
2018-12-05T04:38:12.990Z,6.15
2018-12-05T04:40:41.555Z,6.11
2018-12-05T04:43:10.111Z,6.24
2018-12-05T04:45:38.903Z,6.24
2018-12-05T04:48:07.612Z,6.14
2018-12-05T04:50:36.160Z,6.03
2018-12-05T04:53:04.977Z,5.98
2018-12-05T04:55:33.662Z,6.27
2018-12-05T04:58:03.336Z,6.18
2018-12-05T05:00:32.101Z,6.04
2018-12-05T05:03:00.711Z,6.10
2018-12-05T05:05:29.304Z,6.12
2018-12-05T05:07:58.117Z,6.23
2018-12-05T05:10:26.785Z,6.09
2018-12-05T05:12:55.447Z,6.03
2018-12-05T05:15:24.964Z,6.22
2018-12-05T05:17:54.497Z,6.37
2018-12-05T05:20:23.299Z,6.11
2018-12-05T05:22:52.017Z,5.84
2018-12-05T05:25:21.810Z,5.78
2018-12-05T05:27:50.674Z,5.79
2018-12-05T05:30:20.509Z,5.73
2018-12-05T05:32:51.607Z,5.75
2018-12-05T05:35:21.104Z,6.08
2018-12-05T05:37:49.725Z,5.85
2018-12-05T05:40:18.334Z,5.58
2018-12-05T05:42:47.092Z,5.43
2018-12-05T05:45:15.812Z,5.36
2018-12-05T05:47:47.672Z,5.30
2018-12-05T05:50:16.244Z,5.45
2018-12-05T05:52:44.926Z,5.50
2018-12-05T05:55:13.649Z,5.48
2018-12-05T05:57:44.226Z,5.31
2018-12-05T06:00:12.929Z,5.25
2018-12-05T06:02:47.112Z,5.17
2018-12-05T06:05:18.511Z,5.09
2018-12-05T06:07:47.985Z,4.97
2018-12-05T06:10:16.677Z,4.84
2018-12-05T06:12:45.458Z,4.79
2018-12-05T06:15:14.294Z,4.76
2018-12-05T06:17:42.861Z,4.78
2018-12-05T06:20:13.511Z,4.68
2018-12-05T06:22:42.248Z,4.59
2018-12-05T06:25:12.509Z,4.51
2018-12-05T06:27:41.180Z,4.55
2018-12-05T06:30:10.967Z,4.48
2018-12-05T06:32:46.500Z,4.46
2018-12-05T06:35:15.412Z,4.38
2018-12-05T06:37:44.085Z,4.45
2018-12-05T06:40:13.372Z,4.75
2018-12-05T06:42:42.290Z,5.28
2018-12-05T06:45:11.965Z,5.58
2018-12-05T06:47:40.680Z,5.97
2018-12-05T06:50:10.458Z,6.49
2018-12-05T06:52:38.997Z,6.99
2018-12-05T06:55:07.814Z,7.46
2018-12-05T06:57:45.064Z,7.91
2018-12-05T07:00:13.980Z,8.27
2018-12-05T07:02:48.212Z,8.47
2018-12-05T07:05:19.580Z,8.83
2018-12-05T07:07:51.015Z,8.88
2018-12-05T07:10:19.680Z,9.01
2018-12-05T07:12:48.273Z,9.51
2018-12-05T07:15:17.123Z,9.84
2018-12-05T07:17:45.903Z,9.95
2018-12-05T07:20:14.631Z,10.13
2018-12-05T07:22:43.725Z,10.33
2018-12-05T07:25:12.289Z,10.36
2018-12-05T07:27:41.881Z,10.53
2018-12-05T07:30:11.075Z,10.59
2018-12-05T07:32:42.974Z,10.91
2018-12-05T07:35:12.332Z,11.08
2018-12-05T07:37:51.520Z,11.05
2018-12-05T07:40:20.367Z,11.37
2018-12-05T07:42:49.720Z,11.57
2018-12-05T08:28:28.214Z,14.74
2018-12-05T08:55:15.988Z,16.02
2018-12-05T08:57:52.216Z,15.99
2018-12-05T09:00:24.293Z,15.31
2018-12-05T09:02:56.424Z,15.68
2018-12-05T09:05:27.771Z,16.04
2018-12-05T09:07:56.499Z,16.36
2018-12-05T09:10:27.045Z,16.45
2018-12-05T09:12:55.783Z,16.33
2018-12-05T09:15:25.654Z,16.79
2018-12-05T09:17:54.621Z,16.40
2018-12-05T09:20:23.514Z,16.47
2018-12-05T09:22:52.381Z,16.63
2018-12-05T09:25:21.329Z,16.92
2018-12-05T09:27:50.101Z,16.61
2018-12-05T09:30:18.973Z,16.59
2018-12-05T09:32:48.579Z,16.52
2018-12-05T09:35:17.884Z,16.68
2018-12-05T09:37:46.825Z,16.57
2018-12-05T09:40:15.901Z,16.89
2018-12-05T09:42:44.556Z,16.93
2018-12-05T09:45:13.363Z,17.47
2018-12-05T09:47:47.920Z,17.75
2018-12-05T09:50:19.245Z,18.04
2018-12-05T09:52:48.001Z,18.00
2018-12-05T09:55:16.589Z,18.08
2018-12-05T09:57:45.376Z,17.78
2018-12-05T10:00:14.150Z,18.03
2018-12-05T10:02:44.493Z,17.91
2018-12-05T10:05:14.148Z,17.42
2018-12-05T10:07:43.434Z,17.23
2018-12-05T10:10:12.494Z,17.04
2018-12-05T10:12:47.656Z,17.46
2018-12-05T10:15:16.563Z,17.18
2018-12-05T10:17:45.454Z,16.99
2018-12-05T10:20:14.241Z,16.77
2018-12-05T10:22:43.411Z,16.81
2018-12-05T10:25:12.088Z,17.28
2018-12-05T10:27:40.766Z,17.12
2018-12-05T10:30:09.873Z,17.48
2018-12-05T10:32:40.006Z,17.98
2018-12-05T10:35:09.935Z,18.03
2018-12-05T10:37:50.217Z,18.50
2018-12-05T10:40:19.021Z,18.25
2018-12-05T10:42:47.736Z,18.41
2018-12-05T10:45:16.605Z,17.77
2018-12-05T10:47:46.348Z,18.40
2018-12-05T10:50:15.150Z,18.38
2018-12-05T10:52:43.812Z,17.92
2018-12-05T10:55:12.647Z,18.04
2018-12-05T10:57:41.217Z,18.09
2018-12-05T11:00:12.423Z,18.20
2018-12-05T11:02:47.639Z,18.33
2018-12-05T11:05:21.886Z,18.31
2018-12-05T11:07:57.235Z,18.05
2018-12-05T11:10:31.752Z,17.62
2018-12-05T11:13:06.280Z,17.74
2018-12-05T11:15:40.627Z,17.03
2018-12-05T11:18:15.037Z,17.52
2018-12-05T11:20:49.395Z,17.32
2018-12-05T11:26:27.826Z,16.92
2018-12-05T11:28:56.507Z,17.03
2018-12-05T11:31:26.090Z,16.89
2018-12-05T11:33:54.710Z,16.95
2018-12-05T11:36:24.391Z,17.41
2018-12-05T11:39:09.025Z,17.73
2018-12-05T11:41:47.424Z,17.96
2018-12-05T11:44:17.867Z,18.05
2018-12-05T11:46:56.523Z,17.93
2018-12-05T11:49:26.903Z,17.34
2018-12-05T11:54:34.422Z,18.28
2018-12-05T11:57:13.621Z,18.64
2018-12-05T11:59:43.463Z,18.67
2018-12-05T12:02:12.795Z,18.94
2018-12-05T12:04:42.572Z,19.07
2018-12-05T12:07:20.130Z,19.08
2018-12-05T12:09:50.266Z,19.39
2018-12-05T12:12:34.832Z,19.86
2018-12-05T12:15:04.203Z,19.81
2018-12-05T12:17:44.033Z,19.94
2018-12-05T12:20:12.707Z,20.14
2018-12-05T12:22:53.450Z,20.19
2018-12-05T12:25:22.138Z,20.07
2018-12-05T12:27:51.245Z,18.99
2018-12-05T12:30:20.358Z,18.28
2018-12-05T12:32:49.840Z,18.25
2018-12-05T12:35:18.881Z,18.69
2018-12-05T12:37:54.670Z,18.66
2018-12-05T12:40:24.196Z,18.27
2018-12-05T12:42:53.157Z,18.66
2018-12-05T12:45:22.542Z,19.38
2018-12-05T12:47:52.277Z,19.70
2018-12-05T12:50:21.655Z,20.09
2018-12-05T12:52:53.437Z,19.99
2018-12-05T12:55:22.698Z,20.27
2018-12-05T12:57:52.081Z,20.38
2018-12-05T13:00:22.400Z,20.61
2018-12-05T13:03:00.338Z,19.96
2018-12-05T13:05:31.313Z,20.04
2018-12-05T13:08:00.377Z,19.83
2018-12-05T13:10:29.802Z,20.13
2018-12-05T13:12:59.557Z,20.18
2018-12-05T13:15:29.333Z,20.00
2018-12-05T13:17:58.631Z,20.36
2018-12-05T13:20:28.025Z,20.54
2018-12-05T13:22:57.387Z,20.62
2018-12-05T13:25:27.781Z,20.79
2018-12-05T13:27:57.308Z,20.82
2018-12-05T13:30:26.200Z,20.81
2018-12-05T13:32:55.274Z,20.96
2018-12-05T13:35:24.701Z,20.71
2018-12-05T13:37:54.356Z,20.43
2018-12-05T13:40:23.848Z,20.65
2018-12-05T13:42:53.793Z,20.65
2018-12-05T13:45:23.048Z,19.75
2018-12-05T13:47:52.343Z,19.33
2018-12-05T13:50:21.413Z,19.37
2018-12-05T13:52:54.233Z,18.69
2018-12-05T13:55:24.028Z,18.63
2018-12-05T13:57:53.009Z,18.45
2018-12-05T14:00:22.379Z,18.40
2018-12-05T14:02:51.699Z,18.25
2018-12-05T14:05:21.013Z,18.01
2018-12-05T14:08:00.935Z,17.75
2018-12-05T14:10:32.112Z,17.43
2018-12-05T14:13:01.380Z,16.69
2018-12-05T14:15:31.381Z,16.20
2018-12-05T14:18:01.696Z,15.87
2018-12-05T14:20:32.925Z,15.64
2018-12-05T14:23:04.326Z,15.59
2018-12-05T14:25:33.674Z,15.53
2018-12-05T14:28:03.574Z,15.47
2018-12-05T14:30:33.316Z,15.45
2018-12-05T14:33:03.171Z,15.39
2018-12-05T14:35:33.699Z,15.35
2018-12-05T14:38:03.249Z,15.35
2018-12-05T14:40:33.124Z,15.34
2018-12-05T14:43:11.427Z,15.32
2018-12-05T14:45:41.214Z,15.23
2018-12-05T14:48:10.599Z,15.19
2018-12-05T14:50:40.386Z,15.15
2018-12-05T14:53:09.969Z,15.13
2018-12-05T14:55:40.264Z,15.14
2018-12-05T14:58:19.044Z,15.04
2018-12-05T15:00:49.986Z,14.98
2018-12-05T15:03:25.737Z,14.96
2018-12-05T15:05:55.198Z,14.91
2018-12-05T15:08:34.151Z,14.89
2018-12-05T15:11:04.091Z,14.80
2018-12-05T15:13:34.594Z,14.77
2018-12-05T15:16:03.774Z,14.74
2018-12-05T15:18:36.960Z,14.72
2018-12-05T15:24:50.634Z,14.64
2018-12-05T15:30:46.691Z,14.53
2018-12-05T15:33:16.080Z,14.47
2018-12-05T15:35:46.161Z,14.36
2018-12-05T15:38:15.643Z,14.31
2018-12-05T15:40:46.326Z,14.32
2018-12-05T15:43:15.863Z,14.25
2018-12-05T15:45:49.729Z,14.18
2018-12-05T15:48:20.792Z,14.17
2018-12-05T15:50:51.799Z,14.05
2018-12-05T15:53:21.048Z,14.12
2018-12-05T15:55:49.906Z,14.12
2018-12-05T15:58:19.836Z,14.11
2018-12-05T16:00:51.283Z,14.12
2018-12-05T16:03:28.937Z,14.08
2018-12-05T16:05:59.811Z,14.05
2018-12-05T16:08:29.309Z,14.01
2018-12-05T16:10:58.203Z,13.91
2018-12-05T16:13:28.684Z,13.90
2018-12-05T16:15:58.227Z,13.78
2018-12-05T16:18:27.315Z,13.68
2018-12-05T16:21:06.524Z,13.60
2018-12-05T16:23:38.942Z,13.51
2018-12-05T16:26:10.783Z,13.36
2018-12-05T16:28:43.292Z,13.35
2018-12-05T16:31:13.354Z,13.13
2018-12-05T16:33:42.921Z,13.08
2018-12-05T16:36:12.560Z,13.04
2018-12-05T16:38:43.630Z,12.78
2018-12-05T16:41:13.738Z,12.97
2018-12-05T16:43:43.388Z,13.03
2018-12-05T16:46:12.856Z,12.72
2018-12-05T16:48:42.204Z,12.44
2018-12-05T16:51:12.015Z,12.15
2018-12-05T16:53:41.766Z,11.84
2018-12-05T16:56:11.047Z,11.54
2018-12-05T16:58:39.997Z,11.45
2018-12-05T17:01:09.269Z,11.26
2018-12-05T17:03:49.272Z,11.17
2018-12-05T17:06:20.169Z,11.37
2018-12-05T17:08:49.510Z,11.18
2018-12-05T17:11:19.197Z,10.79
2018-12-05T17:13:48.187Z,10.62
2018-12-05T17:16:18.386Z,10.48
2018-12-05T17:18:49.440Z,10.31
2018-12-05T17:21:18.651Z,10.33
2018-12-05T17:23:47.670Z,10.38
2018-12-05T17:26:18.049Z,10.22
2018-12-05T17:28:47.201Z,10.19
2018-12-05T17:31:16.575Z,10.10
2018-12-05T17:33:46.265Z,9.99
2018-12-05T17:36:15.882Z,9.99
2018-12-05T17:38:45.203Z,10.31
2018-12-05T17:41:14.877Z,10.35
2018-12-05T17:43:44.095Z,10.21
2018-12-05T17:46:13.769Z,9.96
2018-12-05T17:48:43.374Z,9.86
2018-12-05T17:51:12.938Z,10.17
2018-12-05T17:53:42.229Z,9.95
2018-12-05T17:56:12.270Z,9.98
2018-12-05T17:58:41.728Z,9.84
2018-12-05T18:01:11.105Z,9.71
2018-12-05T18:03:50.925Z,9.64
2018-12-05T18:06:20.026Z,9.70
2018-12-05T18:08:50.197Z,10.01
2018-12-05T18:11:19.485Z,9.99
2018-12-05T18:13:48.775Z,9.73
2018-12-05T18:16:18.302Z,9.37
2018-12-05T18:18:48.373Z,9.08
2018-12-05T18:21:17.752Z,8.81
2018-12-05T18:23:47.531Z,8.80
2018-12-05T18:26:16.740Z,9.01
2018-12-05T18:28:46.965Z,9.09
2018-12-05T18:31:16.795Z,8.93
2018-12-05T18:33:46.051Z,8.82
2018-12-05T18:36:15.200Z,8.85
2018-12-05T18:38:44.613Z,8.86
2018-12-05T18:41:13.690Z,8.79
2018-12-05T18:43:43.357Z,8.83
2018-12-05T18:46:13.468Z,9.83
2018-12-05T18:48:42.602Z,10.70
2018-12-05T18:51:12.265Z,11.13
2018-12-05T18:53:43.120Z,11.34
2018-12-05T18:56:15.636Z,11.33
2018-12-05T19:44:57.336Z,9.47
2018-12-05T19:47:33.351Z,9.74
2018-12-05T20:00:24.231Z,9.86
2018-12-05T20:02:53.628Z,9.33
2018-12-05T20:05:22.976Z,9.75
2018-12-05T20:08:16.967Z,10.23
2018-12-05T20:14:03.760Z,10.58
2018-12-05T20:16:48.860Z,10.57
2018-12-05T20:19:34.460Z,10.43
2018-12-05T20:22:16.360Z,10.28
2018-12-05T20:24:51.998Z,10.21
2018-12-05T20:27:36.456Z,9.82
2018-12-05T20:30:23.196Z,9.37
2018-12-05T20:33:14.241Z,9.09
2018-12-05T20:39:09.274Z,8.64
2018-12-05T20:41:43.739Z,8.69
2018-12-05T20:44:13.403Z,9.03
2018-12-05T20:46:53.862Z,9.22
2018-12-05T20:49:37.804Z,8.93
2018-12-05T21:01:38.939Z,9.43
2018-12-05T21:04:29.652Z,9.90
2018-12-05T21:17:10.174Z,10.39
2018-12-05T21:19:41.600Z,10.40
2018-12-05T21:22:21.287Z,10.43
2018-12-05T21:27:34.144Z,10.67
2018-12-05T21:30:07.421Z,10.66
2018-12-05T21:32:46.475Z,10.63
2018-12-05T21:35:18.017Z,10.62
2018-12-05T21:37:56.958Z,10.65
2018-12-05T21:40:27.450Z,10.67
2018-12-05T21:42:57.367Z,10.65
2018-12-05T21:45:27.270Z,10.64
2018-12-05T21:48:02.296Z,10.47
2018-12-05T21:50:31.610Z,10.41
2018-12-05T21:53:10.624Z,10.55
2018-12-05T21:55:40.731Z,10.51
2018-12-05T21:58:09.941Z,10.46
2018-12-05T22:00:39.331Z,10.44
2018-12-05T22:03:14.996Z,10.40
2018-12-05T22:05:46.701Z,10.33
2018-12-05T22:08:21.190Z,10.34
2018-12-05T22:10:50.269Z,10.21
2018-12-05T22:13:19.509Z,10.17
2018-12-05T22:15:49.039Z,10.20
2018-12-05T22:18:18.039Z,10.32
2018-12-05T22:20:46.801Z,10.45
2018-12-05T22:23:16.317Z,10.71
2018-12-05T22:25:45.289Z,11.10
2018-12-05T22:28:15.560Z,11.34
2018-12-05T22:30:44.874Z,11.48
2018-12-05T22:33:13.999Z,11.59
2018-12-05T22:35:42.866Z,11.58
2018-12-05T22:38:12.020Z,11.55
2018-12-05T22:40:41.137Z,11.54
2018-12-05T22:43:10.065Z,11.59
2018-12-05T22:45:39.057Z,11.62
2018-12-05T22:48:08.197Z,11.66
2018-12-05T22:50:37.005Z,11.63
2018-12-05T22:53:06.727Z,11.54
2018-12-05T22:55:36.148Z,11.53
2018-12-05T22:58:10.044Z,11.69
2018-12-05T23:00:43.014Z,11.82
2018-12-05T23:03:14.064Z,11.77
2018-12-05T23:05:52.056Z,11.67
2018-12-05T23:08:23.134Z,11.51
2018-12-05T23:10:52.174Z,11.32
2018-12-05T23:13:20.750Z,11.21
2018-12-05T23:15:49.784Z,11.22
2018-12-05T23:18:19.793Z,11.20
2018-12-05T23:20:48.674Z,11.05
2018-12-05T23:23:17.984Z,10.89
2018-12-05T23:25:46.907Z,10.88
2018-12-05T23:28:17.784Z,10.81
2018-12-05T23:30:46.639Z,10.75
2018-12-05T23:33:15.576Z,10.69
2018-12-05T23:35:44.232Z,10.68
2018-12-05T23:38:14.061Z,10.71
2018-12-05T23:40:43.051Z,10.80
2018-12-05T23:43:12.575Z,10.84
2018-12-05T23:45:41.579Z,10.90
2018-12-05T23:48:10.212Z,10.95
2018-12-05T23:50:39.952Z,11.00
2018-12-05T23:53:08.705Z,10.90
2018-12-05T23:55:37.522Z,11.01
2018-12-05T23:58:06.284Z,11.08
